Hettinger, ND

12:21 PM MST on January 28, 2015 (GMT -0700)
Hettinger Municipal | Change Station
CLOSE
Current Station
Airport
Location: Hettinger,
Elevation: 2703 ft
Nearby Weather Stations

Elev 2703 ft 46.01 °N, 102.66 °W | Updated 28 minutes ago

Mostly Cloudy
Mostly Cloudy
46 °F
Feels Like 36 °F
N
31
Wind Variable Wind from WNW
Gusts 38 mph

Today
High -- | Low -- °F
--% Chance of Precip.
Yesterday
High -- | Low -- °F
Precip. -- in
7:17 AM 4:49 PM
Waxing Gibbous, 67% visible
Pressure 29.92 in
Visibility 10.0 miles
Clouds Mostly Cloudy 11000 ft
Windchill 36 °F
Dew Point 31 °F
Humidity 56%
Rainfall 0.00 in
Snow Depth Not available.
UV 1 out of 12
Pollen .10 out of 12
Air Quality Not available.
Flu Activity Not available.
METAR KHEI 281853Z AUTO 30027G33KT 10SM BKN110 08/M01 A2986 RMK AO2 PK WND 30034/1823 SLP130 T00781006

More Conditions Fewer Conditions

Pressure 29.92 in
Visibility 10.0 miles
Clouds Mostly Cloudy 11000 ft
Windchill 36 °F
Dew Point 31 °F
Humidity 56%
Rainfall 0.00 in
Snow Depth Not available.
UV 1 out of 12
Pollen .10 out of 12
Air Quality Not available.
Flu Activity Not available.
METAR KHEI 281853Z AUTO 30027G33KT 10SM BKN110 08/M01 A2986 RMK AO2 PK WND 30034/1823 SLP130 T00781006

More Conditions Fewer Conditions

10-Day Weather Forecast

Almanac

Astronomy

Jan. 28, 2015 Rise Set
Actual Time
Civil Twilight
Nautical Twilight
Astronomical Twilight
Moon
Length of Visible Light
Length of Day
Tomorrow will be .
, % of the Moon is Illuminated

Today's Extremes

State Highs State Lows

Community

WunderPhotos

Upload Photos

1,791,246 photos uploaded!

WunderBlogs® & News

Nearby

Air Quality

  Air Quality AQ Index Pollutant
Not available.

Snow Depth

Station Depth Elevation

Earthquake Activity

City Distance Mag. Time & Date
Minimum magnitude displayed is 2.5.

Coastal Water Temperatures

Place Temperature

Nearby Weather Stations